Phoenix, Arizona
Traffic Map
Current Weather Conditions
Phoenix, Arizona
Broken Clouds
Broken Clouds
107°
Feels Like: 107°
Wind Chill: 107° Ceiling: 22000
Heat Index: 107° Visibility: 10mi
Dew Point: 52° Wind: 17mph
Humidity: 16% Direction: 300° (WNW)
Pressure: 29.78in Gusts: 0mph
Raw Report DataKPHX 010151Z 30015KT 10SM FEW110 SCT150 BKN220 BKN250 42/11 A2978 RMK AO2 SLP060 T04170111
Traffic Incident Summary
Active as of:
Severity:
Category:
InformationThere was an issue retrieving the traffic information for this location. Please try a different location or try again shortly.
Advertisements
Track Severe Weather on mobile